sensor_id;sensor_type;location;lat;lon;timestamp;P1;durP1;ratioP1;P2;durP2;ratioP2
24425;SDS011;12611;44.446;26.000;2023-03-18T00:01:14;3.10;;;1.10;;
24425;SDS011;12611;44.446;26.000;2023-03-18T00:03:42;3.70;;;1.38;;
24425;SDS011;12611;44.446;26.000;2023-03-18T00:06:13;4.43;;;1.40;;
24425;SDS011;12611;44.446;26.000;2023-03-18T00:08:44;5.27;;;1.20;;
24425;SDS011;12611;44.446;26.000;2023-03-18T00:11:15;2.83;;;1.33;;
24425;SDS011;12611;44.446;26.000;2023-03-18T00:13:45;2.57;;;1.30;;
24425;SDS011;12611;44.446;26.000;2023-03-18T00:16:14;2.27;;;0.90;;
24425;SDS011;12611;44.446;26.000;2023-03-18T00:18:43;5.13;;;1.60;;
24425;SDS011;12611;44.446;26.000;2023-03-18T00:21:12;5.83;;;1.43;;
24425;SDS011;12611;44.446;26.000;2023-03-18T00:23:42;4.00;;;1.23;;
24425;SDS011;12611;44.446;26.000;2023-03-18T00:26:11;3.10;;;1.00;;
24425;SDS011;12611;44.446;26.000;2023-03-18T00:28:41;4.07;;;1.20;;
24425;SDS011;12611;44.446;26.000;2023-03-18T00:31:10;4.20;;;1.30;;
24425;SDS011;12611;44.446;26.000;2023-03-18T00:33:39;3.87;;;1.20;;
24425;SDS011;12611;44.446;26.000;2023-03-18T00:36:11;3.70;;;1.50;;
24425;SDS011;12611;44.446;26.000;2023-03-18T00:38:40;4.40;;;1.20;;
24425;SDS011;12611;44.446;26.000;2023-03-18T00:41:12;3.43;;;1.37;;
24425;SDS011;12611;44.446;26.000;2023-03-18T00:43:43;2.53;;;1.10;;
24425;SDS011;12611;44.446;26.000;2023-03-18T00:46:19;2.73;;;1.10;;
24425;SDS011;12611;44.446;26.000;2023-03-18T00:48:50;4.70;;;1.23;;
24425;SDS011;12611;44.446;26.000;2023-03-18T00:51:20;4.17;;;1.50;;
24425;SDS011;12611;44.446;26.000;2023-03-18T00:53:50;3.87;;;1.27;;
24425;SDS011;12611;44.446;26.000;2023-03-18T00:56:25;1.97;;;1.10;;
24425;SDS011;12611;44.446;26.000;2023-03-18T00:58:55;4.20;;;1.50;;
24425;SDS011;12611;44.446;26.000;2023-03-18T01:01:24;4.07;;;1.20;;
24425;SDS011;12611;44.446;26.000;2023-03-18T01:03:53;3.63;;;1.10;;
24425;SDS011;12611;44.446;26.000;2023-03-18T01:06:22;2.93;;;1.00;;
24425;SDS011;12611;44.446;26.000;2023-03-18T01:08:54;3.00;;;1.17;;
24425;SDS011;12611;44.446;26.000;2023-03-18T01:11:25;2.57;;;1.13;;
24425;SDS011;12611;44.446;26.000;2023-03-18T01:13:54;1.63;;;1.10;;
24425;SDS011;12611;44.446;26.000;2023-03-18T01:16:22;2.40;;;1.00;;
24425;SDS011;12611;44.446;26.000;2023-03-18T01:18:51;3.67;;;1.63;;
24425;SDS011;12611;44.446;26.000;2023-03-18T01:21:20;3.20;;;1.10;;
24425;SDS011;12611;44.446;26.000;2023-03-18T01:23:49;6.17;;;1.53;;
24425;SDS011;12611;44.446;26.000;2023-03-18T01:26:17;3.03;;;1.10;;
24425;SDS011;12611;44.446;26.000;2023-03-18T01:28:47;6.00;;;1.90;;
24425;SDS011;12611;44.446;26.000;2023-03-18T01:31:15;7.17;;;1.37;;
24425;SDS011;12611;44.446;26.000;2023-03-18T01:33:44;4.73;;;1.30;;
24425;SDS011;12611;44.446;26.000;2023-03-18T01:36:13;3.87;;;1.37;;
24425;SDS011;12611;44.446;26.000;2023-03-18T01:38:41;4.47;;;1.03;;
24425;SDS011;12611;44.446;26.000;2023-03-18T01:41:10;3.07;;;1.30;;
24425;SDS011;12611;44.446;26.000;2023-03-18T01:43:39;2.13;;;1.17;;
24425;SDS011;12611;44.446;26.000;2023-03-18T01:49:13;3.00;;;1.47;;
24425;SDS011;12611;44.446;26.000;2023-03-18T01:51:45;6.17;;;1.57;;
24425;SDS011;12611;44.446;26.000;2023-03-18T01:54:17;4.27;;;1.50;;
24425;SDS011;12611;44.446;26.000;2023-03-18T01:56:46;2.50;;;1.10;;
24425;SDS011;12611;44.446;26.000;2023-03-18T01:59:17;3.10;;;1.20;;
24425;SDS011;12611;44.446;26.000;2023-03-18T02:01:50;2.50;;;1.23;;
24425;SDS011;12611;44.446;26.000;2023-03-18T02:04:22;4.00;;;1.23;;
24425;SDS011;12611;44.446;26.000;2023-03-18T02:06:56;2.33;;;1.10;;
24425;SDS011;12611;44.446;26.000;2023-03-18T02:09:26;5.87;;;1.60;;
24425;SDS011;12611;44.446;26.000;2023-03-18T02:11:55;2.47;;;1.20;;
24425;SDS011;12611;44.446;26.000;2023-03-18T02:14:24;3.93;;;1.43;;
24425;SDS011;12611;44.446;26.000;2023-03-18T02:16:56;3.00;;;1.20;;
24425;SDS011;12611;44.446;26.000;2023-03-18T02:19:32;6.40;;;1.63;;
24425;SDS011;12611;44.446;26.000;2023-03-18T02:22:14;4.03;;;1.47;;
24425;SDS011;12611;44.446;26.000;2023-03-18T02:24:52;3.30;;;1.30;;
24425;SDS011;12611;44.446;26.000;2023-03-18T02:27:33;3.67;;;1.40;;
24425;SDS011;12611;44.446;26.000;2023-03-18T02:30:05;3.50;;;1.10;;
24425;SDS011;12611;44.446;26.000;2023-03-18T02:32:36;2.50;;;1.07;;
24425;SDS011;12611;44.446;26.000;2023-03-18T02:35:07;4.50;;;1.70;;
24425;SDS011;12611;44.446;26.000;2023-03-18T02:37:37;3.27;;;1.13;;
24425;SDS011;12611;44.446;26.000;2023-03-18T02:40:13;5.00;;;1.97;;
24425;SDS011;12611;44.446;26.000;2023-03-18T02:42:44;3.53;;;1.37;;
24425;SDS011;12611;44.446;26.000;2023-03-18T02:45:16;6.47;;;1.90;;
24425;SDS011;12611;44.446;26.000;2023-03-18T02:48:07;4.03;;;1.57;;
24425;SDS011;12611;44.446;26.000;2023-03-18T02:50:37;4.00;;;1.70;;
24425;SDS011;12611;44.446;26.000;2023-03-18T02:53:09;3.43;;;1.40;;
24425;SDS011;12611;44.446;26.000;2023-03-18T02:55:39;5.40;;;1.63;;
24425;SDS011;12611;44.446;26.000;2023-03-18T02:58:09;3.60;;;1.60;;
24425;SDS011;12611;44.446;26.000;2023-03-18T03:00:37;6.57;;;1.87;;
24425;SDS011;12611;44.446;26.000;2023-03-18T03:03:06;4.90;;;1.47;;
24425;SDS011;12611;44.446;26.000;2023-03-18T03:05:35;2.63;;;1.13;;
24425;SDS011;12611;44.446;26.000;2023-03-18T03:08:04;3.80;;;1.53;;
24425;SDS011;12611;44.446;26.000;2023-03-18T03:10:33;2.93;;;1.23;;
24425;SDS011;12611;44.446;26.000;2023-03-18T03:13:02;3.00;;;1.23;;
24425;SDS011;12611;44.446;26.000;2023-03-18T03:15:33;2.33;;;1.00;;
24425;SDS011;12611;44.446;26.000;2023-03-18T03:18:01;4.30;;;1.10;;
24425;SDS011;12611;44.446;26.000;2023-03-18T03:20:30;2.60;;;1.47;;
24425;SDS011;12611;44.446;26.000;2023-03-18T03:23:00;2.53;;;1.00;;
24425;SDS011;12611;44.446;26.000;2023-03-18T03:25:29;3.57;;;1.37;;
24425;SDS011;12611;44.446;26.000;2023-03-18T03:27:58;3.90;;;1.37;;
24425;SDS011;12611;44.446;26.000;2023-03-18T03:30:26;2.57;;;1.17;;
24425;SDS011;12611;44.446;26.000;2023-03-18T03:32:56;2.70;;;1.10;;
24425;SDS011;12611;44.446;26.000;2023-03-18T03:35:26;2.40;;;1.10;;
24425;SDS011;12611;44.446;26.000;2023-03-18T03:37:54;2.23;;;1.00;;
24425;SDS011;12611;44.446;26.000;2023-03-18T03:40:23;1.93;;;1.10;;
24425;SDS011;12611;44.446;26.000;2023-03-18T03:42:53;3.20;;;0.97;;
24425;SDS011;12611;44.446;26.000;2023-03-18T03:45:21;4.97;;;1.67;;
24425;SDS011;12611;44.446;26.000;2023-03-18T03:47:50;5.30;;;1.50;;
24425;SDS011;12611;44.446;26.000;2023-03-18T03:50:20;2.77;;;1.30;;
24425;SDS011;12611;44.446;26.000;2023-03-18T03:52:49;3.43;;;1.27;;
24425;SDS011;12611;44.446;26.000;2023-03-18T03:55:19;4.03;;;1.33;;
24425;SDS011;12611;44.446;26.000;2023-03-18T03:57:48;2.23;;;1.10;;
24425;SDS011;12611;44.446;26.000;2023-03-18T04:00:17;5.93;;;1.60;;
24425;SDS011;12611;44.446;26.000;2023-03-18T04:02:47;3.90;;;1.10;;
24425;SDS011;12611;44.446;26.000;2023-03-18T04:05:17;4.30;;;1.40;;
24425;SDS011;12611;44.446;26.000;2023-03-18T04:07:49;2.60;;;1.20;;
24425;SDS011;12611;44.446;26.000;2023-03-18T04:10:19;5.27;;;1.40;;
24425;SDS011;12611;44.446;26.000;2023-03-18T04:12:48;5.77;;;1.70;;
24425;SDS011;12611;44.446;26.000;2023-03-18T04:15:17;4.83;;;1.50;;
24425;SDS011;12611;44.446;26.000;2023-03-18T04:17:47;4.30;;;1.30;;
24425;SDS011;12611;44.446;26.000;2023-03-18T04:20:16;2.27;;;1.27;;
24425;SDS011;12611;44.446;26.000;2023-03-18T04:22:45;3.67;;;1.50;;
24425;SDS011;12611;44.446;26.000;2023-03-18T04:25:15;6.00;;;1.93;;
24425;SDS011;12611;44.446;26.000;2023-03-18T04:27:43;5.30;;;1.23;;
24425;SDS011;12611;44.446;26.000;2023-03-18T04:30:12;5.23;;;1.60;;
24425;SDS011;12611;44.446;26.000;2023-03-18T04:32:40;9.37;;;1.80;;
24425;SDS011;12611;44.446;26.000;2023-03-18T04:35:09;3.63;;;1.50;;
24425;SDS011;12611;44.446;26.000;2023-03-18T04:37:38;3.13;;;1.53;;
24425;SDS011;12611;44.446;26.000;2023-03-18T04:40:06;2.10;;;1.30;;
24425;SDS011;12611;44.446;26.000;2023-03-18T04:42:38;4.93;;;1.93;;
24425;SDS011;12611;44.446;26.000;2023-03-18T04:45:08;3.83;;;1.87;;
24425;SDS011;12611;44.446;26.000;2023-03-18T04:47:37;5.30;;;1.67;;
24425;SDS011;12611;44.446;26.000;2023-03-18T04:50:05;3.90;;;1.87;;
24425;SDS011;12611;44.446;26.000;2023-03-18T04:52:36;4.07;;;2.10;;
24425;SDS011;12611;44.446;26.000;2023-03-18T04:55:05;5.47;;;2.53;;
24425;SDS011;12611;44.446;26.000;2023-03-18T04:57:35;4.90;;;1.70;;
24425;SDS011;12611;44.446;26.000;2023-03-18T05:00:06;8.03;;;2.00;;
24425;SDS011;12611;44.446;26.000;2023-03-18T05:02:37;4.13;;;1.47;;
24425;SDS011;12611;44.446;26.000;2023-03-18T05:05:06;5.93;;;1.50;;
24425;SDS011;12611;44.446;26.000;2023-03-18T05:07:34;5.33;;;1.70;;
24425;SDS011;12611;44.446;26.000;2023-03-18T05:10:03;4.73;;;1.57;;
24425;SDS011;12611;44.446;26.000;2023-03-18T05:12:33;4.90;;;1.60;;
24425;SDS011;12611;44.446;26.000;2023-03-18T05:15:02;6.83;;;1.97;;
24425;SDS011;12611;44.446;26.000;2023-03-18T05:17:32;4.00;;;1.30;;
24425;SDS011;12611;44.446;26.000;2023-03-18T05:20:00;5.77;;;1.70;;
24425;SDS011;12611;44.446;26.000;2023-03-18T05:22:29;4.23;;;1.50;;
24425;SDS011;12611;44.446;26.000;2023-03-18T05:24:58;2.37;;;1.50;;
24425;SDS011;12611;44.446;26.000;2023-03-18T05:27:27;5.03;;;2.23;;
24425;SDS011;12611;44.446;26.000;2023-03-18T05:29:55;8.27;;;2.03;;
24425;SDS011;12611;44.446;26.000;2023-03-18T05:32:24;9.87;;;3.47;;
24425;SDS011;12611;44.446;26.000;2023-03-18T05:34:53;6.77;;;2.70;;
24425;SDS011;12611;44.446;26.000;2023-03-18T05:37:22;7.47;;;2.20;;
24425;SDS011;12611;44.446;26.000;2023-03-18T05:39:50;10.53;;;2.80;;
24425;SDS011;12611;44.446;26.000;2023-03-18T05:42:19;7.17;;;2.33;;
24425;SDS011;12611;44.446;26.000;2023-03-18T05:44:47;5.60;;;2.47;;
24425;SDS011;12611;44.446;26.000;2023-03-18T05:47:16;8.00;;;2.97;;
24425;SDS011;12611;44.446;26.000;2023-03-18T05:49:44;7.10;;;2.90;;
24425;SDS011;12611;44.446;26.000;2023-03-18T05:52:15;6.00;;;2.60;;
24425;SDS011;12611;44.446;26.000;2023-03-18T05:54:43;6.47;;;2.43;;
24425;SDS011;12611;44.446;26.000;2023-03-18T05:57:11;8.47;;;2.63;;
24425;SDS011;12611;44.446;26.000;2023-03-18T05:59:41;6.17;;;2.07;;
24425;SDS011;12611;44.446;26.000;2023-03-18T06:02:09;4.40;;;1.63;;
24425;SDS011;12611;44.446;26.000;2023-03-18T06:04:38;5.07;;;1.83;;
24425;SDS011;12611;44.446;26.000;2023-03-18T06:07:06;7.67;;;2.70;;
24425;SDS011;12611;44.446;26.000;2023-03-18T06:09:36;6.07;;;2.50;;
24425;SDS011;12611;44.446;26.000;2023-03-18T06:12:05;5.17;;;1.87;;
24425;SDS011;12611;44.446;26.000;2023-03-18T06:14:33;7.83;;;2.20;;
24425;SDS011;12611;44.446;26.000;2023-03-18T06:17:03;7.97;;;2.13;;
24425;SDS011;12611;44.446;26.000;2023-03-18T06:19:31;5.77;;;1.90;;
24425;SDS011;12611;44.446;26.000;2023-03-18T06:22:00;5.47;;;1.80;;
24425;SDS011;12611;44.446;26.000;2023-03-18T06:24:29;4.93;;;1.80;;
24425;SDS011;12611;44.446;26.000;2023-03-18T06:26:59;4.67;;;1.40;;
24425;SDS011;12611;44.446;26.000;2023-03-18T06:29:27;3.73;;;1.87;;
24425;SDS011;12611;44.446;26.000;2023-03-18T06:31:57;5.60;;;1.90;;
24425;SDS011;12611;44.446;26.000;2023-03-18T06:34:25;4.67;;;1.67;;
24425;SDS011;12611;44.446;26.000;2023-03-18T06:36:54;9.17;;;2.20;;
24425;SDS011;12611;44.446;26.000;2023-03-18T06:39:23;5.63;;;1.87;;
24425;SDS011;12611;44.446;26.000;2023-03-18T06:41:51;7.50;;;2.27;;
24425;SDS011;12611;44.446;26.000;2023-03-18T06:44:21;3.33;;;1.20;;
24425;SDS011;12611;44.446;26.000;2023-03-18T06:46:50;4.50;;;1.80;;
24425;SDS011;12611;44.446;26.000;2023-03-18T06:49:19;4.73;;;1.60;;
24425;SDS011;12611;44.446;26.000;2023-03-18T06:51:47;4.80;;;1.60;;
24425;SDS011;12611;44.446;26.000;2023-03-18T06:54:16;5.77;;;1.80;;
24425;SDS011;12611;44.446;26.000;2023-03-18T06:56:45;9.70;;;2.20;;
24425;SDS011;12611;44.446;26.000;2023-03-18T06:59:13;5.57;;;1.70;;
24425;SDS011;12611;44.446;26.000;2023-03-18T07:01:44;5.90;;;1.90;;
24425;SDS011;12611;44.446;26.000;2023-03-18T07:04:13;2.97;;;1.67;;
24425;SDS011;12611;44.446;26.000;2023-03-18T07:06:41;4.30;;;1.83;;
24425;SDS011;12611;44.446;26.000;2023-03-18T07:09:10;8.27;;;1.90;;
24425;SDS011;12611;44.446;26.000;2023-03-18T07:11:40;3.73;;;1.50;;
24425;SDS011;12611;44.446;26.000;2023-03-18T07:14:09;9.17;;;2.27;;
24425;SDS011;12611;44.446;26.000;2023-03-18T07:16:39;4.63;;;1.50;;
24425;SDS011;12611;44.446;26.000;2023-03-18T07:19:10;3.73;;;1.57;;
24425;SDS011;12611;44.446;26.000;2023-03-18T07:21:39;5.93;;;2.17;;
24425;SDS011;12611;44.446;26.000;2023-03-18T07:24:08;6.03;;;1.80;;
24425;SDS011;12611;44.446;26.000;2023-03-18T07:26:37;5.43;;;2.27;;
24425;SDS011;12611;44.446;26.000;2023-03-18T07:29:06;5.73;;;1.90;;
24425;SDS011;12611;44.446;26.000;2023-03-18T07:31:35;4.50;;;1.83;;
24425;SDS011;12611;44.446;26.000;2023-03-18T07:34:04;4.27;;;1.90;;
24425;SDS011;12611;44.446;26.000;2023-03-18T07:36:34;6.13;;;1.73;;
24425;SDS011;12611;44.446;26.000;2023-03-18T07:39:03;3.87;;;1.70;;
24425;SDS011;12611;44.446;26.000;2023-03-18T07:41:32;5.63;;;1.63;;
24425;SDS011;12611;44.446;26.000;2023-03-18T07:44:03;3.33;;;1.60;;
24425;SDS011;12611;44.446;26.000;2023-03-18T07:46:32;4.60;;;1.73;;
24425;SDS011;12611;44.446;26.000;2023-03-18T07:49:00;3.00;;;1.70;;
24425;SDS011;12611;44.446;26.000;2023-03-18T07:51:29;4.60;;;1.77;;
24425;SDS011;12611;44.446;26.000;2023-03-18T07:53:59;5.90;;;1.77;;
24425;SDS011;12611;44.446;26.000;2023-03-18T07:56:29;3.70;;;1.57;;
24425;SDS011;12611;44.446;26.000;2023-03-18T07:58:57;8.10;;;1.73;;
24425;SDS011;12611;44.446;26.000;2023-03-18T08:01:26;3.63;;;1.67;;
24425;SDS011;12611;44.446;26.000;2023-03-18T08:03:56;4.87;;;1.50;;
24425;SDS011;12611;44.446;26.000;2023-03-18T08:06:25;5.60;;;1.93;;
24425;SDS011;12611;44.446;26.000;2023-03-18T08:08:53;4.50;;;1.40;;
24425;SDS011;12611;44.446;26.000;2023-03-18T08:11:23;4.43;;;1.80;;
24425;SDS011;12611;44.446;26.000;2023-03-18T08:13:51;6.67;;;2.00;;
24425;SDS011;12611;44.446;26.000;2023-03-18T08:16:20;4.37;;;1.83;;
24425;SDS011;12611;44.446;26.000;2023-03-18T08:18:48;3.43;;;1.57;;
24425;SDS011;12611;44.446;26.000;2023-03-18T08:21:16;5.60;;;1.90;;
24425;SDS011;12611;44.446;26.000;2023-03-18T08:23:45;4.33;;;1.73;;
24425;SDS011;12611;44.446;26.000;2023-03-18T08:26:14;6.20;;;2.47;;
24425;SDS011;12611;44.446;26.000;2023-03-18T08:28:43;4.73;;;2.23;;
24425;SDS011;12611;44.446;26.000;2023-03-18T08:31:12;4.40;;;2.10;;
24425;SDS011;12611;44.446;26.000;2023-03-18T08:33:40;3.83;;;1.60;;
24425;SDS011;12611;44.446;26.000;2023-03-18T08:36:09;3.37;;;1.70;;
24425;SDS011;12611;44.446;26.000;2023-03-18T08:38:37;5.37;;;1.90;;
24425;SDS011;12611;44.446;26.000;2023-03-18T08:41:06;5.07;;;1.90;;
24425;SDS011;12611;44.446;26.000;2023-03-18T08:43:35;5.03;;;2.07;;
24425;SDS011;12611;44.446;26.000;2023-03-18T08:46:06;4.37;;;1.90;;
24425;SDS011;12611;44.446;26.000;2023-03-18T08:48:34;9.03;;;2.30;;
24425;SDS011;12611;44.446;26.000;2023-03-18T08:51:03;5.50;;;2.60;;
24425;SDS011;12611;44.446;26.000;2023-03-18T08:53:33;5.97;;;2.00;;
24425;SDS011;12611;44.446;26.000;2023-03-18T08:56:02;3.20;;;1.77;;
24425;SDS011;12611;44.446;26.000;2023-03-18T08:58:32;5.17;;;1.70;;
24425;SDS011;12611;44.446;26.000;2023-03-18T09:01:01;5.07;;;1.73;;
24425;SDS011;12611;44.446;26.000;2023-03-18T09:03:32;5.97;;;1.90;;
24425;SDS011;12611;44.446;26.000;2023-03-18T09:06:01;5.57;;;1.87;;
24425;SDS011;12611;44.446;26.000;2023-03-18T09:08:31;4.87;;;1.77;;
24425;SDS011;12611;44.446;26.000;2023-03-18T09:10:59;4.80;;;2.37;;
24425;SDS011;12611;44.446;26.000;2023-03-18T09:13:27;4.30;;;1.60;;
24425;SDS011;12611;44.446;26.000;2023-03-18T09:15:56;5.20;;;1.83;;
24425;SDS011;12611;44.446;26.000;2023-03-18T09:18:24;4.90;;;1.60;;
24425;SDS011;12611;44.446;26.000;2023-03-18T09:20:54;6.63;;;2.00;;
24425;SDS011;12611;44.446;26.000;2023-03-18T09:23:23;5.27;;;1.97;;
24425;SDS011;12611;44.446;26.000;2023-03-18T09:25:51;4.93;;;1.97;;
24425;SDS011;12611;44.446;26.000;2023-03-18T09:28:20;5.83;;;2.43;;
24425;SDS011;12611;44.446;26.000;2023-03-18T09:30:48;6.17;;;2.00;;
24425;SDS011;12611;44.446;26.000;2023-03-18T09:33:17;4.87;;;1.73;;
24425;SDS011;12611;44.446;26.000;2023-03-18T09:35:46;3.47;;;1.77;;
24425;SDS011;12611;44.446;26.000;2023-03-18T09:38:16;6.27;;;1.90;;
24425;SDS011;12611;44.446;26.000;2023-03-18T09:40:49;9.00;;;2.23;;
24425;SDS011;12611;44.446;26.000;2023-03-18T09:43:29;3.73;;;1.70;;
24425;SDS011;12611;44.446;26.000;2023-03-18T09:46:08;3.20;;;1.80;;
24425;SDS011;12611;44.446;26.000;2023-03-18T09:48:46;5.40;;;1.50;;
24425;SDS011;12611;44.446;26.000;2023-03-18T09:51:42;7.20;;;2.40;;
24425;SDS011;12611;44.446;26.000;2023-03-18T09:54:33;3.90;;;1.90;;
24425;SDS011;12611;44.446;26.000;2023-03-18T09:57:05;6.07;;;2.00;;
24425;SDS011;12611;44.446;26.000;2023-03-18T09:59:40;3.00;;;1.77;;
24425;SDS011;12611;44.446;26.000;2023-03-18T10:02:17;4.27;;;1.60;;
24425;SDS011;12611;44.446;26.000;2023-03-18T10:04:51;4.50;;;2.03;;
24425;SDS011;12611;44.446;26.000;2023-03-18T10:07:24;3.93;;;1.73;;
24425;SDS011;12611;44.446;26.000;2023-03-18T10:09:59;5.90;;;1.80;;
24425;SDS011;12611;44.446;26.000;2023-03-18T10:12:32;3.87;;;1.70;;
24425;SDS011;12611;44.446;26.000;2023-03-18T10:15:05;8.03;;;2.03;;
24425;SDS011;12611;44.446;26.000;2023-03-18T10:17:40;6.20;;;1.87;;
24425;SDS011;12611;44.446;26.000;2023-03-18T10:20:14;4.23;;;2.00;;
24425;SDS011;12611;44.446;26.000;2023-03-18T10:25:41;4.03;;;1.77;;
24425;SDS011;12611;44.446;26.000;2023-03-18T10:31:35;4.40;;;1.93;;
24425;SDS011;12611;44.446;26.000;2023-03-18T10:34:13;5.43;;;2.23;;
24425;SDS011;12611;44.446;26.000;2023-03-18T10:36:48;5.13;;;1.83;;
24425;SDS011;12611;44.446;26.000;2023-03-18T10:39:19;8.23;;;2.20;;
24425;SDS011;12611;44.446;26.000;2023-03-18T10:42:01;4.37;;;1.70;;
24425;SDS011;12611;44.446;26.000;2023-03-18T10:44:46;6.83;;;1.77;;
24425;SDS011;12611;44.446;26.000;2023-03-18T10:47:16;6.20;;;2.43;;
24425;SDS011;12611;44.446;26.000;2023-03-18T10:50:03;3.43;;;1.80;;
24425;SDS011;12611;44.446;26.000;2023-03-18T10:52:45;5.23;;;2.20;;
24425;SDS011;12611;44.446;26.000;2023-03-18T10:55:21;6.17;;;1.87;;
24425;SDS011;12611;44.446;26.000;2023-03-18T10:57:57;5.27;;;1.87;;
24425;SDS011;12611;44.446;26.000;2023-03-18T11:00:28;5.47;;;2.00;;
24425;SDS011;12611;44.446;26.000;2023-03-18T11:02:58;6.93;;;2.40;;
24425;SDS011;12611;44.446;26.000;2023-03-18T11:05:28;6.00;;;1.97;;
24425;SDS011;12611;44.446;26.000;2023-03-18T11:08:00;4.93;;;1.90;;
24425;SDS011;12611;44.446;26.000;2023-03-18T11:10:32;5.37;;;1.93;;
24425;SDS011;12611;44.446;26.000;2023-03-18T11:13:03;4.13;;;1.80;;
24425;SDS011;12611;44.446;26.000;2023-03-18T11:15:34;17.88;;;6.60;;
24425;SDS011;12611;44.446;26.000;2023-03-18T11:18:05;3.23;;;2.23;;
24425;SDS011;12611;44.446;26.000;2023-03-18T11:20:44;5.30;;;1.90;;
24425;SDS011;12611;44.446;26.000;2023-03-18T11:23:15;3.90;;;1.77;;
24425;SDS011;12611;44.446;26.000;2023-03-18T11:25:46;8.57;;;3.80;;
24425;SDS011;12611;44.446;26.000;2023-03-18T11:28:20;4.47;;;1.90;;
24425;SDS011;12611;44.446;26.000;2023-03-18T11:30:54;6.30;;;2.00;;
24425;SDS011;12611;44.446;26.000;2023-03-18T11:33:28;3.93;;;2.03;;
24425;SDS011;12611;44.446;26.000;2023-03-18T11:35:58;3.97;;;1.60;;
24425;SDS011;12611;44.446;26.000;2023-03-18T11:38:32;4.27;;;1.87;;
24425;SDS011;12611;44.446;26.000;2023-03-18T11:41:06;5.87;;;1.83;;
24425;SDS011;12611;44.446;26.000;2023-03-18T11:43:36;5.90;;;2.80;;
24425;SDS011;12611;44.446;26.000;2023-03-18T11:46:05;3.23;;;1.73;;
24425;SDS011;12611;44.446;26.000;2023-03-18T11:48:36;6.20;;;2.57;;
24425;SDS011;12611;44.446;26.000;2023-03-18T11:51:13;5.40;;;1.63;;
24425;SDS011;12611;44.446;26.000;2023-03-18T11:54:04;5.63;;;2.20;;
24425;SDS011;12611;44.446;26.000;2023-03-18T11:56:43;3.80;;;2.07;;
24425;SDS011;12611;44.446;26.000;2023-03-18T11:59:27;3.20;;;1.70;;
24425;SDS011;12611;44.446;26.000;2023-03-18T12:02:20;5.60;;;1.90;;
24425;SDS011;12611;44.446;26.000;2023-03-18T12:08:08;3.77;;;1.77;;
24425;SDS011;12611;44.446;26.000;2023-03-18T12:10:43;6.10;;;2.33;;
24425;SDS011;12611;44.446;26.000;2023-03-18T12:13:32;8.13;;;1.90;;
24425;SDS011;12611;44.446;26.000;2023-03-18T12:16:10;8.23;;;2.10;;
24425;SDS011;12611;44.446;26.000;2023-03-18T12:18:49;6.40;;;2.17;;
24425;SDS011;12611;44.446;26.000;2023-03-18T12:21:35;6.60;;;2.73;;
24425;SDS011;12611;44.446;26.000;2023-03-18T12:24:22;3.93;;;2.03;;
24425;SDS011;12611;44.446;26.000;2023-03-18T12:27:01;3.23;;;1.40;;
24425;SDS011;12611;44.446;26.000;2023-03-18T12:29:41;7.40;;;2.10;;
24425;SDS011;12611;44.446;26.000;2023-03-18T12:32:34;5.53;;;1.80;;
24425;SDS011;12611;44.446;26.000;2023-03-18T12:38:24;5.37;;;2.40;;
24425;SDS011;12611;44.446;26.000;2023-03-18T12:41:22;4.83;;;1.60;;
24425;SDS011;12611;44.446;26.000;2023-03-18T12:44:08;5.43;;;1.43;;
24425;SDS011;12611;44.446;26.000;2023-03-18T12:46:46;3.47;;;1.40;;
24425;SDS011;12611;44.446;26.000;2023-03-18T12:49:30;3.17;;;1.70;;
24425;SDS011;12611;44.446;26.000;2023-03-18T12:52:01;4.17;;;2.10;;
24425;SDS011;12611;44.446;26.000;2023-03-18T12:54:35;3.60;;;1.70;;
24425;SDS011;12611;44.446;26.000;2023-03-18T12:57:10;2.27;;;1.30;;
24425;SDS011;12611;44.446;26.000;2023-03-18T12:59:42;4.00;;;1.43;;
24425;SDS011;12611;44.446;26.000;2023-03-18T13:02:19;2.60;;;1.40;;
24425;SDS011;12611;44.446;26.000;2023-03-18T13:05:05;5.73;;;1.73;;
24425;SDS011;12611;44.446;26.000;2023-03-18T13:07:44;2.97;;;1.50;;
24425;SDS011;12611;44.446;26.000;2023-03-18T13:10:18;4.73;;;1.50;;
24425;SDS011;12611;44.446;26.000;2023-03-18T13:12:50;3.10;;;1.60;;
24425;SDS011;12611;44.446;26.000;2023-03-18T13:15:24;5.07;;;1.70;;
24425;SDS011;12611;44.446;26.000;2023-03-18T13:17:58;4.00;;;1.53;;
24425;SDS011;12611;44.446;26.000;2023-03-18T13:24:30;4.47;;;1.70;;
24425;SDS011;12611;44.446;26.000;2023-03-18T13:30:30;4.63;;;1.80;;
24425;SDS011;12611;44.446;26.000;2023-03-18T13:33:27;6.37;;;1.90;;
24425;SDS011;12611;44.446;26.000;2023-03-18T13:36:22;3.90;;;1.90;;
24425;SDS011;12611;44.446;26.000;2023-03-18T13:39:18;3.43;;;1.77;;
24425;SDS011;12611;44.446;26.000;2023-03-18T13:42:03;3.60;;;1.67;;
24425;SDS011;12611;44.446;26.000;2023-03-18T13:44:47;5.13;;;1.97;;
24425;SDS011;12611;44.446;26.000;2023-03-18T13:47:24;6.47;;;2.13;;
24425;SDS011;12611;44.446;26.000;2023-03-18T13:49:57;3.83;;;2.07;;
24425;SDS011;12611;44.446;26.000;2023-03-18T13:52:32;6.17;;;2.70;;
24425;SDS011;12611;44.446;26.000;2023-03-18T13:55:21;4.73;;;2.30;;
24425;SDS011;12611;44.446;26.000;2023-03-18T13:57:55;4.50;;;1.90;;
24425;SDS011;12611;44.446;26.000;2023-03-18T14:00:36;4.87;;;2.37;;
24425;SDS011;12611;44.446;26.000;2023-03-18T14:08:53;6.10;;;2.17;;
24425;SDS011;12611;44.446;26.000;2023-03-18T14:11:42;8.67;;;3.00;;
24425;SDS011;12611;44.446;26.000;2023-03-18T14:17:38;4.80;;;2.50;;
24425;SDS011;12611;44.446;26.000;2023-03-18T14:22:55;5.17;;;2.20;;
24425;SDS011;12611;44.446;26.000;2023-03-18T14:25:47;3.90;;;1.87;;
24425;SDS011;12611;44.446;26.000;2023-03-18T14:28:23;7.97;;;1.97;;
24425;SDS011;12611;44.446;26.000;2023-03-18T14:33:49;5.07;;;1.90;;
24425;SDS011;12611;44.446;26.000;2023-03-18T14:39:46;6.87;;;2.50;;
24425;SDS011;12611;44.446;26.000;2023-03-18T14:42:26;4.93;;;2.10;;
24425;SDS011;12611;44.446;26.000;2023-03-18T14:45:01;6.50;;;3.10;;
24425;SDS011;12611;44.446;26.000;2023-03-18T14:47:39;7.70;;;4.60;;
24425;SDS011;12611;44.446;26.000;2023-03-18T14:50:12;8.20;;;3.93;;
24425;SDS011;12611;44.446;26.000;2023-03-18T14:52:50;12.20;;;5.60;;
24425;SDS011;12611;44.446;26.000;2023-03-18T14:55:23;10.70;;;5.80;;
24425;SDS011;12611;44.446;26.000;2023-03-18T14:57:56;9.37;;;5.30;;
24425;SDS011;12611;44.446;26.000;2023-03-18T15:00:24;10.37;;;4.40;;
24425;SDS011;12611;44.446;26.000;2023-03-18T15:02:58;10.13;;;3.27;;
24425;SDS011;12611;44.446;26.000;2023-03-18T15:05:31;8.33;;;4.37;;
24425;SDS011;12611;44.446;26.000;2023-03-18T15:08:04;10.17;;;5.07;;
24425;SDS011;12611;44.446;26.000;2023-03-18T15:10:36;10.07;;;5.03;;
24425;SDS011;12611;44.446;26.000;2023-03-18T15:13:10;7.10;;;3.63;;
24425;SDS011;12611;44.446;26.000;2023-03-18T15:15:40;6.87;;;3.50;;
24425;SDS011;12611;44.446;26.000;2023-03-18T15:18:16;14.50;;;4.90;;
24425;SDS011;12611;44.446;26.000;2023-03-18T15:20:47;12.43;;;5.73;;
24425;SDS011;12611;44.446;26.000;2023-03-18T15:23:18;12.37;;;6.93;;
24425;SDS011;12611;44.446;26.000;2023-03-18T15:25:52;11.53;;;6.13;;
24425;SDS011;12611;44.446;26.000;2023-03-18T15:28:23;8.13;;;4.70;;
24425;SDS011;12611;44.446;26.000;2023-03-18T15:30:55;9.33;;;5.10;;
24425;SDS011;12611;44.446;26.000;2023-03-18T15:33:28;10.50;;;5.37;;
24425;SDS011;12611;44.446;26.000;2023-03-18T15:36:02;13.50;;;5.37;;
24425;SDS011;12611;44.446;26.000;2023-03-18T15:38:32;7.47;;;4.30;;
24425;SDS011;12611;44.446;26.000;2023-03-18T15:41:00;9.77;;;4.67;;
24425;SDS011;12611;44.446;26.000;2023-03-18T15:43:33;9.37;;;4.50;;